Terminal Aerodrome Forecast
Issued by NWS

Home | Current Version | Previous Version | Text Only | Print | Product List | Glossary On
Versions: 1 2 3 4 5 6 7 8 9 10 11 12 13 14 15 16 17 18 19 20 21 22 23 24 25 26 27 28 29 30 31 32 33
000
FTUS43 KLOT 311900 AAA
TAFDPA
TAF AMD
KDPA 311958Z 3120/0118 36021G35KT P6SM BKN040
     FM312330 36017G26KT P6SM BKN040
     FM010300 36014G20KT P6SM SCT035
     FM010800 36011KT P6SM SCT035
     FM011400 01010G16KT P6SM BKN035=

USA.gov is the U.S. government's official web portal to all federal, state and local government web resources and services.